Aérodrome :
LOGIN :

S'inscrire | Disclaimer

   EN    FR    IT 

 










Légende :    VFR   VFR Marginal   IFR   IFR Intensif   IFR Très Intensif
Visi : 
Plafond : 
>= 8 km
>= 3000ft
5 à 8 km
1000 à 3000 ft
1500m à 5 km
500 à 1000 ft
800 à 1500m
200 à 500 ft
< 800m
< 200 ft
Symboles :   Orages  Brouillard  Fortes neiges  Fortes précipitations  Vent > 20 kt
SIGMETs :   Divers  Orages  Givrage  Turbulence  Onde Orograph.  Cendres Volcan.







- Altitude de l'aérodrome : 1260 ft
- Code IATA : LDE
- Voir les cartes d'approche


LFBT - Tarbes / Ossun

DERNIER METAR :
  • 200900Z AUTO 18002KT 9000 OVC058 05/05 Q1012 TEMPO 4000 RA

METARs EXPIRÉS :
  • 200830Z AUTO 21003KT 9000 FEW021 SCT060 OVC076 05/05 Q1011 TEMPO 4000 RA
  • 200800Z AUTO 15003KT 9999 -RA SCT068 OVC080 05/04 Q1011 TEMPO 4000 RA
  • 200730Z AUTO 15003KT 9000 -RA OVC070 05/04 Q1011 TEMPO 4000 RA
  • 200700Z AUTO 15004KT 9999 FEW060 OVC070 05/04 Q1011 TEMPO 4000 RA
  • 200630Z AUTO 20003KT 9999 -RA FEW030 OVC068 05/04 Q1010 TEMPO 4000 RA
  • 200600Z AUTO VRB02KT 9999 -RA FEW058 BKN070 OVC084 05/04 Q1010 TEMPO 4000 RA

TAF TAF LFBT
Valide du 20 à 06h jusqu'au 21 à 06h UTC


200500Z 2006/2106 25008KT 9999 BKN080
TEMPO 2006/2012 4000 RA BKN020
PROB40
TEMPO 2012/2106 4000 SHRA BKN020TCU
Pas de NOTAMs connus pour ce terrain.



MET'MAP, la Météo Aéronautique d'un coup d'oeil ! - Copyright ORBIFLY Décembre 2007 - Disclaimer

ORBIFLY MET'MAP TEAM :

Programmation & Développement : Alexandra Zaïnal
Conception & Développement : Baudouin d'Aumeries
Co-Programmation & Développement : Marc-Olivier Méhu
Soutien technique & logistique : Manuel Goepfert

Contact : metmap@orbifly.com




SOURCES & CREDITS :

   NOAA